sensor_id;sensor_type;location;lat;lon;timestamp;P1;durP1;ratioP1;P2;durP2;ratioP2
71869;SDS011;59739;47.696;11.746;2024-03-08T00:01:13;43.38;;;20.75;;
71869;SDS011;59739;47.696;11.746;2024-03-08T00:03:39;36.58;;;18.30;;
71869;SDS011;59739;47.696;11.746;2024-03-08T00:06:05;38.55;;;18.23;;
71869;SDS011;59739;47.696;11.746;2024-03-08T00:08:31;34.05;;;17.35;;
71869;SDS011;59739;47.696;11.746;2024-03-08T00:10:57;34.60;;;18.05;;
71869;SDS011;59739;47.696;11.746;2024-03-08T00:13:24;35.60;;;17.70;;
71869;SDS011;59739;47.696;11.746;2024-03-08T00:15:50;40.75;;;21.13;;
71869;SDS011;59739;47.696;11.746;2024-03-08T00:18:16;38.42;;;19.50;;
71869;SDS011;59739;47.696;11.746;2024-03-08T00:20:42;38.38;;;19.38;;
71869;SDS011;59739;47.696;11.746;2024-03-08T00:23:10;45.45;;;22.95;;
71869;SDS011;59739;47.696;11.746;2024-03-08T00:25:37;41.28;;;19.38;;
71869;SDS011;59739;47.696;11.746;2024-03-08T00:28:04;40.50;;;19.08;;
71869;SDS011;59739;47.696;11.746;2024-03-08T00:30:31;28.83;;;15.20;;
71869;SDS011;59739;47.696;11.746;2024-03-08T00:32:57;28.05;;;15.20;;
71869;SDS011;59739;47.696;11.746;2024-03-08T00:35:24;28.95;;;15.48;;
71869;SDS011;59739;47.696;11.746;2024-03-08T00:37:50;34.05;;;16.98;;
71869;SDS011;59739;47.696;11.746;2024-03-08T00:40:16;70.20;;;29.33;;
71869;SDS011;59739;47.696;11.746;2024-03-08T00:42:42;45.15;;;20.92;;
71869;SDS011;59739;47.696;11.746;2024-03-08T00:45:09;55.35;;;24.83;;
71869;SDS011;59739;47.696;11.746;2024-03-08T00:47:36;42.13;;;19.60;;
71869;SDS011;59739;47.696;11.746;2024-03-08T00:50:02;38.40;;;17.77;;
71869;SDS011;59739;47.696;11.746;2024-03-08T00:52:29;56.35;;;16.45;;
71869;SDS011;59739;47.696;11.746;2024-03-08T00:54:55;69.45;;;16.85;;
71869;SDS011;59739;47.696;11.746;2024-03-08T00:57:21;60.35;;;17.48;;
71869;SDS011;59739;47.696;11.746;2024-03-08T00:59:47;74.57;;;17.52;;
71869;SDS011;59739;47.696;11.746;2024-03-08T01:02:13;73.05;;;18.48;;
71869;SDS011;59739;47.696;11.746;2024-03-08T01:04:39;113.25;;;19.90;;
71869;SDS011;59739;47.696;11.746;2024-03-08T01:07:05;40.35;;;16.23;;
71869;SDS011;59739;47.696;11.746;2024-03-08T01:09:31;41.17;;;16.48;;
71869;SDS011;59739;47.696;11.746;2024-03-08T01:11:57;40.72;;;17.48;;
71869;SDS011;59739;47.696;11.746;2024-03-08T01:14:24;63.80;;;18.40;;
71869;SDS011;59739;47.696;11.746;2024-03-08T01:16:55;58.70;;;17.23;;
71869;SDS011;59739;47.696;11.746;2024-03-08T01:19:21;31.13;;;16.27;;
71869;SDS011;59739;47.696;11.746;2024-03-08T01:21:47;109.63;;;18.38;;
71869;SDS011;59739;47.696;11.746;2024-03-08T01:24:13;145.70;;;21.58;;
71869;SDS011;59739;47.696;11.746;2024-03-08T01:26:39;45.17;;;16.60;;
71869;SDS011;59739;47.696;11.746;2024-03-08T01:29:05;75.85;;;17.48;;
71869;SDS011;59739;47.696;11.746;2024-03-08T01:31:31;59.38;;;14.95;;
71869;SDS011;59739;47.696;11.746;2024-03-08T01:33:58;61.90;;;16.10;;
71869;SDS011;59739;47.696;11.746;2024-03-08T01:36:24;165.73;;;19.20;;
71869;SDS011;59739;47.696;11.746;2024-03-08T01:38:51;158.15;;;19.85;;
71869;SDS011;59739;47.696;11.746;2024-03-08T01:41:17;93.93;;;16.75;;
71869;SDS011;59739;47.696;11.746;2024-03-08T01:43:44;108.35;;;15.93;;
71869;SDS011;59739;47.696;11.746;2024-03-08T01:46:12;42.85;;;14.23;;
71869;SDS011;59739;47.696;11.746;2024-03-08T01:48:47;159.32;;;19.85;;
71869;SDS011;59739;47.696;11.746;2024-03-08T01:51:13;38.50;;;13.73;;
71869;SDS011;59739;47.696;11.746;2024-03-08T01:53:40;36.65;;;12.55;;
71869;SDS011;59739;47.696;11.746;2024-03-08T01:56:07;98.82;;;16.15;;
71869;SDS011;59739;47.696;11.746;2024-03-08T01:58:33;209.40;;;21.95;;
71869;SDS011;59739;47.696;11.746;2024-03-08T02:01:00;218.50;;;22.67;;
71869;SDS011;59739;47.696;11.746;2024-03-08T02:03:29;192.02;;;20.67;;
71869;SDS011;59739;47.696;11.746;2024-03-08T02:05:56;128.93;;;16.38;;
71869;SDS011;59739;47.696;11.746;2024-03-08T02:08:24;159.02;;;17.45;;
71869;SDS011;59739;47.696;11.746;2024-03-08T02:10:50;119.55;;;18.48;;
71869;SDS011;59739;47.696;11.746;2024-03-08T02:13:16;60.97;;;13.73;;
71869;SDS011;59739;47.696;11.746;2024-03-08T02:15:55;105.68;;;16.17;;
71869;SDS011;59739;47.696;11.746;2024-03-08T02:18:26;43.17;;;12.32;;
71869;SDS011;59739;47.696;11.746;2024-03-08T02:20:54;41.83;;;12.25;;
71869;SDS011;59739;47.696;11.746;2024-03-08T02:23:21;121.05;;;17.52;;
71869;SDS011;59739;47.696;11.746;2024-03-08T02:25:51;34.38;;;13.00;;
71869;SDS011;59739;47.696;11.746;2024-03-08T02:28:19;62.40;;;14.05;;
71869;SDS011;59739;47.696;11.746;2024-03-08T02:30:49;40.45;;;12.70;;
71869;SDS011;59739;47.696;11.746;2024-03-08T02:33:16;80.18;;;15.18;;
71869;SDS011;59739;47.696;11.746;2024-03-08T02:35:46;38.85;;;13.25;;
71869;SDS011;59739;47.696;11.746;2024-03-08T02:38:17;47.28;;;12.20;;
71869;SDS011;59739;47.696;11.746;2024-03-08T02:40:45;81.20;;;12.97;;
71869;SDS011;59739;47.696;11.746;2024-03-08T02:43:13;39.20;;;11.98;;
71869;SDS011;59739;47.696;11.746;2024-03-08T02:45:40;56.92;;;13.75;;
71869;SDS011;59739;47.696;11.746;2024-03-08T02:48:09;38.22;;;11.20;;
71869;SDS011;59739;47.696;11.746;2024-03-08T02:50:36;53.00;;;12.25;;
71869;SDS011;59739;47.696;11.746;2024-03-08T02:53:03;47.78;;;12.18;;
71869;SDS011;59739;47.696;11.746;2024-03-08T02:55:29;33.28;;;10.85;;
71869;SDS011;59739;47.696;11.746;2024-03-08T02:57:55;27.40;;;11.27;;
71869;SDS011;59739;47.696;11.746;2024-03-08T03:00:22;32.42;;;12.82;;
71869;SDS011;59739;47.696;11.746;2024-03-08T03:02:49;37.38;;;11.75;;
71869;SDS011;59739;47.696;11.746;2024-03-08T03:05:19;45.33;;;10.98;;
71869;SDS011;59739;47.696;11.746;2024-03-08T03:07:46;65.32;;;13.02;;
71869;SDS011;59739;47.696;11.746;2024-03-08T03:10:13;64.88;;;12.27;;
71869;SDS011;59739;47.696;11.746;2024-03-08T03:12:42;46.75;;;11.35;;
71869;SDS011;59739;47.696;11.746;2024-03-08T03:15:09;62.88;;;11.30;;
71869;SDS011;59739;47.696;11.746;2024-03-08T03:17:37;47.50;;;11.00;;
71869;SDS011;59739;47.696;11.746;2024-03-08T03:20:05;33.20;;;10.57;;
71869;SDS011;59739;47.696;11.746;2024-03-08T03:22:38;18.38;;;9.18;;
71869;SDS011;59739;47.696;11.746;2024-03-08T03:25:05;38.05;;;10.85;;
71869;SDS011;59739;47.696;11.746;2024-03-08T03:27:34;47.55;;;11.95;;
71869;SDS011;59739;47.696;11.746;2024-03-08T03:30:00;59.05;;;12.18;;
71869;SDS011;59739;47.696;11.746;2024-03-08T03:32:46;21.70;;;9.98;;
71869;SDS011;59739;47.696;11.746;2024-03-08T03:35:19;21.38;;;10.45;;
71869;SDS011;59739;47.696;11.746;2024-03-08T03:37:46;27.40;;;10.40;;
71869;SDS011;59739;47.696;11.746;2024-03-08T03:40:34;39.88;;;12.10;;
71869;SDS011;59739;47.696;11.746;2024-03-08T03:43:02;61.38;;;12.35;;
71869;SDS011;59739;47.696;11.746;2024-03-08T03:45:28;44.17;;;11.80;;
71869;SDS011;59739;47.696;11.746;2024-03-08T03:47:55;18.98;;;10.02;;
71869;SDS011;59739;47.696;11.746;2024-03-08T03:50:21;52.13;;;10.35;;
71869;SDS011;59739;47.696;11.746;2024-03-08T03:52:48;39.08;;;11.07;;
71869;SDS011;59739;47.696;11.746;2024-03-08T03:55:14;18.52;;;9.75;;
71869;SDS011;59739;47.696;11.746;2024-03-08T03:57:41;29.20;;;11.02;;
71869;SDS011;59739;47.696;11.746;2024-03-08T04:00:07;19.50;;;10.93;;
71869;SDS011;59739;47.696;11.746;2024-03-08T04:02:39;22.02;;;11.70;;
71869;SDS011;59739;47.696;11.746;2024-03-08T04:05:06;42.65;;;12.20;;
71869;SDS011;59739;47.696;11.746;2024-03-08T04:07:34;76.85;;;13.32;;
71869;SDS011;59739;47.696;11.746;2024-03-08T04:10:02;40.45;;;11.55;;
71869;SDS011;59739;47.696;11.746;2024-03-08T04:12:31;44.53;;;11.02;;
71869;SDS011;59739;47.696;11.746;2024-03-08T04:15:00;43.80;;;10.95;;
71869;SDS011;59739;47.696;11.746;2024-03-08T04:17:27;26.58;;;9.45;;
71869;SDS011;59739;47.696;11.746;2024-03-08T04:19:53;72.68;;;12.65;;
71869;SDS011;59739;47.696;11.746;2024-03-08T04:22:19;20.25;;;9.82;;
71869;SDS011;59739;47.696;11.746;2024-03-08T04:24:45;40.80;;;10.65;;
71869;SDS011;59739;47.696;11.746;2024-03-08T04:27:12;23.75;;;10.30;;
71869;SDS011;59739;47.696;11.746;2024-03-08T04:29:39;63.00;;;12.75;;
71869;SDS011;59739;47.696;11.746;2024-03-08T04:32:06;72.63;;;12.95;;
71869;SDS011;59739;47.696;11.746;2024-03-08T04:34:34;69.05;;;12.10;;
71869;SDS011;59739;47.696;11.746;2024-03-08T04:37:00;54.67;;;13.10;;
71869;SDS011;59739;47.696;11.746;2024-03-08T04:39:27;113.57;;;13.57;;
71869;SDS011;59739;47.696;11.746;2024-03-08T04:41:54;64.53;;;11.55;;
71869;SDS011;59739;47.696;11.746;2024-03-08T04:44:22;19.77;;;10.18;;
71869;SDS011;59739;47.696;11.746;2024-03-08T04:46:52;96.75;;;13.23;;
71869;SDS011;59739;47.696;11.746;2024-03-08T04:49:18;47.28;;;9.98;;
71869;SDS011;59739;47.696;11.746;2024-03-08T04:51:44;46.83;;;11.32;;
71869;SDS011;59739;47.696;11.746;2024-03-08T04:54:10;45.38;;;11.52;;
71869;SDS011;59739;47.696;11.746;2024-03-08T04:56:36;76.45;;;12.18;;
71869;SDS011;59739;47.696;11.746;2024-03-08T04:59:02;43.60;;;11.60;;
71869;SDS011;59739;47.696;11.746;2024-03-08T05:01:28;20.42;;;8.68;;
71869;SDS011;59739;47.696;11.746;2024-03-08T05:03:54;73.93;;;12.35;;
71869;SDS011;59739;47.696;11.746;2024-03-08T05:06:20;37.55;;;10.57;;
71869;SDS011;59739;47.696;11.746;2024-03-08T05:08:48;41.28;;;10.13;;
71869;SDS011;59739;47.696;11.746;2024-03-08T05:11:14;24.83;;;9.57;;
71869;SDS011;59739;47.696;11.746;2024-03-08T05:13:41;148.60;;;15.40;;
71869;SDS011;59739;47.696;11.746;2024-03-08T05:16:08;41.20;;;9.75;;
71869;SDS011;59739;47.696;11.746;2024-03-08T05:18:34;60.33;;;10.95;;
71869;SDS011;59739;47.696;11.746;2024-03-08T05:21:01;72.25;;;11.90;;
71869;SDS011;59739;47.696;11.746;2024-03-08T05:23:29;72.18;;;11.65;;
71869;SDS011;59739;47.696;11.746;2024-03-08T05:25:56;35.53;;;9.98;;
71869;SDS011;59739;47.696;11.746;2024-03-08T05:28:22;25.38;;;9.32;;
71869;SDS011;59739;47.696;11.746;2024-03-08T05:30:48;34.15;;;9.35;;
71869;SDS011;59739;47.696;11.746;2024-03-08T05:33:14;73.13;;;11.82;;
71869;SDS011;59739;47.696;11.746;2024-03-08T05:35:40;18.70;;;8.90;;
71869;SDS011;59739;47.696;11.746;2024-03-08T05:38:06;27.63;;;8.95;;
71869;SDS011;59739;47.696;11.746;2024-03-08T05:40:32;26.50;;;10.02;;
71869;SDS011;59739;47.696;11.746;2024-03-08T05:42:58;31.35;;;8.15;;
71869;SDS011;59739;47.696;11.746;2024-03-08T05:45:25;17.65;;;8.63;;
71869;SDS011;59739;47.696;11.746;2024-03-08T05:47:51;41.92;;;10.60;;
71869;SDS011;59739;47.696;11.746;2024-03-08T05:50:18;33.65;;;10.00;;
71869;SDS011;59739;47.696;11.746;2024-03-08T05:52:44;14.02;;;8.30;;
71869;SDS011;59739;47.696;11.746;2024-03-08T05:55:12;17.08;;;8.25;;
71869;SDS011;59739;47.696;11.746;2024-03-08T05:57:41;14.00;;;8.20;;
71869;SDS011;59739;47.696;11.746;2024-03-08T06:00:08;23.33;;;10.05;;
71869;SDS011;59739;47.696;11.746;2024-03-08T06:02:40;17.23;;;9.02;;
71869;SDS011;59739;47.696;11.746;2024-03-08T06:05:10;38.97;;;10.00;;
71869;SDS011;59739;47.696;11.746;2024-03-08T06:07:36;21.92;;;9.95;;
71869;SDS011;59739;47.696;11.746;2024-03-08T06:10:09;17.63;;;8.98;;
71869;SDS011;59739;47.696;11.746;2024-03-08T06:12:37;15.32;;;8.82;;
71869;SDS011;59739;47.696;11.746;2024-03-08T06:15:07;20.27;;;10.15;;
71869;SDS011;59739;47.696;11.746;2024-03-08T06:17:35;15.20;;;8.65;;
71869;SDS011;59739;47.696;11.746;2024-03-08T06:20:02;41.22;;;10.27;;
71869;SDS011;59739;47.696;11.746;2024-03-08T06:22:41;16.50;;;9.35;;
71869;SDS011;59739;47.696;11.746;2024-03-08T06:25:08;14.43;;;8.20;;
71869;SDS011;59739;47.696;11.746;2024-03-08T06:27:42;19.15;;;9.38;;
71869;SDS011;59739;47.696;11.746;2024-03-08T06:30:09;17.80;;;9.07;;
71869;SDS011;59739;47.696;11.746;2024-03-08T06:32:36;18.17;;;9.57;;
71869;SDS011;59739;47.696;11.746;2024-03-08T06:35:05;17.42;;;8.52;;
71869;SDS011;59739;47.696;11.746;2024-03-08T06:37:32;18.05;;;9.98;;
71869;SDS011;59739;47.696;11.746;2024-03-08T06:39:59;16.27;;;8.63;;
71869;SDS011;59739;47.696;11.746;2024-03-08T06:42:26;17.02;;;9.23;;
71869;SDS011;59739;47.696;11.746;2024-03-08T06:45:00;16.85;;;9.30;;
71869;SDS011;59739;47.696;11.746;2024-03-08T06:47:33;16.30;;;10.02;;
71869;SDS011;59739;47.696;11.746;2024-03-08T06:49:59;18.52;;;10.10;;
71869;SDS011;59739;47.696;11.746;2024-03-08T06:52:25;18.52;;;9.68;;
71869;SDS011;59739;47.696;11.746;2024-03-08T06:54:52;15.68;;;10.05;;
71869;SDS011;59739;47.696;11.746;2024-03-08T06:57:18;19.65;;;11.95;;
71869;SDS011;59739;47.696;11.746;2024-03-08T06:59:47;19.98;;;10.93;;
71869;SDS011;59739;47.696;11.746;2024-03-08T07:02:15;19.50;;;10.65;;
71869;SDS011;59739;47.696;11.746;2024-03-08T07:04:41;20.42;;;10.80;;
71869;SDS011;59739;47.696;11.746;2024-03-08T07:07:07;18.27;;;10.30;;
71869;SDS011;59739;47.696;11.746;2024-03-08T07:09:35;18.67;;;9.85;;
71869;SDS011;59739;47.696;11.746;2024-03-08T07:12:02;18.02;;;9.77;;
71869;SDS011;59739;47.696;11.746;2024-03-08T07:14:29;16.40;;;9.23;;
71869;SDS011;59739;47.696;11.746;2024-03-08T07:16:56;14.38;;;9.05;;
71869;SDS011;59739;47.696;11.746;2024-03-08T07:19:22;16.00;;;9.30;;
71869;SDS011;59739;47.696;11.746;2024-03-08T07:21:49;15.18;;;8.35;;
71869;SDS011;59739;47.696;11.746;2024-03-08T07:24:15;21.92;;;10.60;;
71869;SDS011;59739;47.696;11.746;2024-03-08T07:27:06;16.95;;;10.32;;
71869;SDS011;59739;47.696;11.746;2024-03-08T07:29:32;15.10;;;9.05;;
71869;SDS011;59739;47.696;11.746;2024-03-08T07:32:01;13.98;;;8.38;;
71869;SDS011;59739;47.696;11.746;2024-03-08T07:34:49;20.98;;;8.18;;
71869;SDS011;59739;47.696;11.746;2024-03-08T07:37:16;15.07;;;8.10;;
71869;SDS011;59739;47.696;11.746;2024-03-08T07:39:46;12.88;;;7.53;;
71869;SDS011;59739;47.696;11.746;2024-03-08T07:42:12;13.07;;;8.07;;
71869;SDS011;59739;47.696;11.746;2024-03-08T07:44:38;13.43;;;8.20;;
71869;SDS011;59739;47.696;11.746;2024-03-08T07:47:05;14.95;;;8.55;;
71869;SDS011;59739;47.696;11.746;2024-03-08T07:49:35;13.68;;;8.52;;
71869;SDS011;59739;47.696;11.746;2024-03-08T07:52:03;12.75;;;8.55;;
71869;SDS011;59739;47.696;11.746;2024-03-08T07:54:30;13.77;;;7.32;;
71869;SDS011;59739;47.696;11.746;2024-03-08T07:56:56;14.43;;;7.63;;
71869;SDS011;59739;47.696;11.746;2024-03-08T07:59:22;13.18;;;8.52;;
71869;SDS011;59739;47.696;11.746;2024-03-08T08:01:48;15.10;;;8.73;;
71869;SDS011;59739;47.696;11.746;2024-03-08T08:04:14;18.73;;;9.98;;
71869;SDS011;59739;47.696;11.746;2024-03-08T08:06:43;14.80;;;9.65;;
71869;SDS011;59739;47.696;11.746;2024-03-08T08:09:09;14.88;;;9.60;;
71869;SDS011;59739;47.696;11.746;2024-03-08T08:11:48;15.85;;;9.82;;
71869;SDS011;59739;47.696;11.746;2024-03-08T08:14:15;19.90;;;10.73;;
71869;SDS011;59739;47.696;11.746;2024-03-08T08:16:41;16.05;;;10.80;;
71869;SDS011;59739;47.696;11.746;2024-03-08T08:19:07;16.55;;;10.98;;
71869;SDS011;59739;47.696;11.746;2024-03-08T08:21:34;16.50;;;10.70;;
71869;SDS011;59739;47.696;11.746;2024-03-08T08:24:03;18.70;;;12.43;;
71869;SDS011;59739;47.696;11.746;2024-03-08T08:26:30;17.40;;;11.02;;
71869;SDS011;59739;47.696;11.746;2024-03-08T08:28:56;16.73;;;9.95;;
71869;SDS011;59739;47.696;11.746;2024-03-08T08:31:22;15.25;;;9.85;;
71869;SDS011;59739;47.696;11.746;2024-03-08T08:33:49;15.55;;;9.52;;
71869;SDS011;59739;47.696;11.746;2024-03-08T08:36:15;15.90;;;10.13;;
71869;SDS011;59739;47.696;11.746;2024-03-08T08:38:41;19.25;;;12.00;;
71869;SDS011;59739;47.696;11.746;2024-03-08T08:41:09;19.33;;;12.05;;
71869;SDS011;59739;47.696;11.746;2024-03-08T08:43:36;18.35;;;11.90;;
71869;SDS011;59739;47.696;11.746;2024-03-08T08:46:04;21.20;;;12.82;;
71869;SDS011;59739;47.696;11.746;2024-03-08T08:48:31;17.30;;;11.45;;
71869;SDS011;59739;47.696;11.746;2024-03-08T08:50:57;20.33;;;11.50;;
71869;SDS011;59739;47.696;11.746;2024-03-08T08:53:24;19.63;;;12.60;;
71869;SDS011;59739;47.696;11.746;2024-03-08T08:55:50;21.33;;;13.80;;
71869;SDS011;59739;47.696;11.746;2024-03-08T08:58:17;20.67;;;12.93;;
71869;SDS011;59739;47.696;11.746;2024-03-08T09:00:43;21.27;;;13.07;;
71869;SDS011;59739;47.696;11.746;2024-03-08T09:03:09;20.60;;;11.15;;
71869;SDS011;59739;47.696;11.746;2024-03-08T09:05:37;19.60;;;13.05;;
71869;SDS011;59739;47.696;11.746;2024-03-08T09:08:03;20.38;;;13.10;;
71869;SDS011;59739;47.696;11.746;2024-03-08T09:10:33;19.55;;;12.50;;
71869;SDS011;59739;47.696;11.746;2024-03-08T09:12:59;19.92;;;12.45;;
71869;SDS011;59739;47.696;11.746;2024-03-08T09:15:25;20.50;;;11.93;;
71869;SDS011;59739;47.696;11.746;2024-03-08T09:17:53;19.15;;;12.18;;
71869;SDS011;59739;47.696;11.746;2024-03-08T09:20:19;22.00;;;12.10;;
71869;SDS011;59739;47.696;11.746;2024-03-08T09:22:45;22.15;;;13.48;;
71869;SDS011;59739;47.696;11.746;2024-03-08T09:25:11;19.23;;;12.85;;
71869;SDS011;59739;47.696;11.746;2024-03-08T09:27:41;21.98;;;13.63;;
71869;SDS011;59739;47.696;11.746;2024-03-08T09:30:07;20.98;;;12.10;;
71869;SDS011;59739;47.696;11.746;2024-03-08T09:32:34;20.20;;;13.15;;
71869;SDS011;59739;47.696;11.746;2024-03-08T09:35:02;20.40;;;13.80;;
71869;SDS011;59739;47.696;11.746;2024-03-08T09:37:32;20.15;;;12.50;;
71869;SDS011;59739;47.696;11.746;2024-03-08T09:39:59;19.10;;;13.07;;
71869;SDS011;59739;47.696;11.746;2024-03-08T09:42:29;22.02;;;13.00;;
71869;SDS011;59739;47.696;11.746;2024-03-08T09:44:57;21.15;;;12.57;;
71869;SDS011;59739;47.696;11.746;2024-03-08T09:47:24;18.88;;;12.15;;
71869;SDS011;59739;47.696;11.746;2024-03-08T09:49:58;18.85;;;12.38;;
71869;SDS011;59739;47.696;11.746;2024-03-08T09:52:25;21.08;;;12.70;;
71869;SDS011;59739;47.696;11.746;2024-03-08T09:54:52;23.38;;;14.00;;
71869;SDS011;59739;47.696;11.746;2024-03-08T09:57:18;19.58;;;13.27;;
71869;SDS011;59739;47.696;11.746;2024-03-08T09:59:44;20.63;;;12.50;;
71869;SDS011;59739;47.696;11.746;2024-03-08T10:02:14;21.38;;;13.20;;
71869;SDS011;59739;47.696;11.746;2024-03-08T10:04:41;23.15;;;13.55;;
71869;SDS011;59739;47.696;11.746;2024-03-08T10:07:07;23.15;;;15.70;;
71869;SDS011;59739;47.696;11.746;2024-03-08T10:09:33;25.23;;;15.82;;
71869;SDS011;59739;47.696;11.746;2024-03-08T10:12:04;20.95;;;13.43;;
71869;SDS011;59739;47.696;11.746;2024-03-08T10:14:31;24.20;;;14.27;;
71869;SDS011;59739;47.696;11.746;2024-03-08T10:16:57;22.73;;;15.38;;
71869;SDS011;59739;47.696;11.746;2024-03-08T10:19:26;21.27;;;14.55;;
71869;SDS011;59739;47.696;11.746;2024-03-08T10:21:54;20.85;;;12.90;;
71869;SDS011;59739;47.696;11.746;2024-03-08T10:24:24;23.45;;;14.00;;
71869;SDS011;59739;47.696;11.746;2024-03-08T10:26:53;19.70;;;13.70;;
71869;SDS011;59739;47.696;11.746;2024-03-08T10:29:25;21.73;;;13.88;;
71869;SDS011;59739;47.696;11.746;2024-03-08T10:31:54;22.33;;;14.50;;
71869;SDS011;59739;47.696;11.746;2024-03-08T10:34:21;20.48;;;14.07;;
71869;SDS011;59739;47.696;11.746;2024-03-08T10:36:49;21.70;;;14.57;;
71869;SDS011;59739;47.696;11.746;2024-03-08T10:39:26;24.52;;;16.35;;
71869;SDS011;59739;47.696;11.746;2024-03-08T10:41:58;24.50;;;16.83;;
71869;SDS011;59739;47.696;11.746;2024-03-08T10:49:34;23.75;;;14.98;;
71869;SDS011;59739;47.696;11.746;2024-03-08T10:52:09;23.52;;;13.45;;
71869;SDS011;59739;47.696;11.746;2024-03-08T10:54:38;20.38;;;14.02;;
71869;SDS011;59739;47.696;11.746;2024-03-08T10:57:06;20.67;;;13.45;;
71869;SDS011;59739;47.696;11.746;2024-03-08T10:59:33;22.52;;;14.80;;
71869;SDS011;59739;47.696;11.746;2024-03-08T11:02:00;21.42;;;14.38;;
71869;SDS011;59739;47.696;11.746;2024-03-08T11:04:27;21.60;;;14.27;;
71869;SDS011;59739;47.696;11.746;2024-03-08T11:06:54;21.10;;;14.88;;
71869;SDS011;59739;47.696;11.746;2024-03-08T11:09:35;20.65;;;14.20;;
71869;SDS011;59739;47.696;11.746;2024-03-08T11:14:50;21.60;;;14.93;;
71869;SDS011;59739;47.696;11.746;2024-03-08T11:19:57;18.52;;;11.60;;
71869;SDS011;59739;47.696;11.746;2024-03-08T11:22:31;18.70;;;13.32;;
71869;SDS011;59739;47.696;11.746;2024-03-08T11:27:38;18.40;;;11.60;;
71869;SDS011;59739;47.696;11.746;2024-03-08T11:30:04;18.42;;;13.05;;
71869;SDS011;59739;47.696;11.746;2024-03-08T11:32:37;21.52;;;12.63;;
71869;SDS011;59739;47.696;11.746;2024-03-08T11:35:07;19.35;;;13.63;;
71869;SDS011;59739;47.696;11.746;2024-03-08T11:37:43;17.42;;;12.57;;
71869;SDS011;59739;47.696;11.746;2024-03-08T11:40:13;21.90;;;13.38;;
71869;SDS011;59739;47.696;11.746;2024-03-08T11:42:45;19.88;;;12.45;;
71869;SDS011;59739;47.696;11.746;2024-03-08T11:45:12;17.52;;;11.40;;
71869;SDS011;59739;47.696;11.746;2024-03-08T11:47:42;18.13;;;11.57;;
71869;SDS011;59739;47.696;11.746;2024-03-08T11:50:11;20.38;;;12.60;;
71869;SDS011;59739;47.696;11.746;2024-03-08T11:52:39;18.00;;;11.52;;
71869;SDS011;59739;47.696;11.746;2024-03-08T11:55:08;19.73;;;12.40;;
71869;SDS011;59739;47.696;11.746;2024-03-08T11:57:40;18.90;;;13.13;;
71869;SDS011;59739;47.696;11.746;2024-03-08T12:00:14;16.13;;;11.35;;
71869;SDS011;59739;47.696;11.746;2024-03-08T12:03:06;19.30;;;11.63;;
71869;SDS011;59739;47.696;11.746;2024-03-08T12:05:38;15.50;;;10.90;;
71869;SDS011;59739;47.696;11.746;2024-03-08T12:08:04;17.95;;;11.68;;
71869;SDS011;59739;47.696;11.746;2024-03-08T12:10:40;15.50;;;10.02;;
71869;SDS011;59739;47.696;11.746;2024-03-08T12:13:06;17.83;;;12.32;;
71869;SDS011;59739;47.696;11.746;2024-03-08T12:15:37;13.82;;;9.80;;
71869;SDS011;59739;47.696;11.746;2024-03-08T12:18:06;14.07;;;10.38;;
71869;SDS011;59739;47.696;11.746;2024-03-08T12:20:35;17.70;;;10.77;;
71869;SDS011;59739;47.696;11.746;2024-03-08T12:23:04;14.77;;;10.43;;
71869;SDS011;59739;47.696;11.746;2024-03-08T12:25:31;13.95;;;10.10;;
71869;SDS011;59739;47.696;11.746;2024-03-08T12:28:07;17.08;;;10.52;;
71869;SDS011;59739;47.696;11.746;2024-03-08T12:30:45;12.90;;;9.15;;
71869;SDS011;59739;47.696;11.746;2024-03-08T12:33:13;14.48;;;10.02;;
71869;SDS011;59739;47.696;11.746;2024-03-08T12:35:40;15.20;;;9.95;;
71869;SDS011;59739;47.696;11.746;2024-03-08T12:38:15;13.20;;;9.23;;
71869;SDS011;59739;47.696;11.746;2024-03-08T12:40:41;14.48;;;10.20;;
71869;SDS011;59739;47.696;11.746;2024-03-08T12:43:07;14.18;;;9.77;;
71869;SDS011;59739;47.696;11.746;2024-03-08T12:45:33;14.00;;;10.30;;
71869;SDS011;59739;47.696;11.746;2024-03-08T12:47:59;13.63;;;9.60;;
71869;SDS011;59739;47.696;11.746;2024-03-08T12:50:25;14.80;;;9.48;;
71869;SDS011;59739;47.696;11.746;2024-03-08T12:52:52;16.75;;;9.90;;
71869;SDS011;59739;47.696;11.746;2024-03-08T12:55:18;14.68;;;8.93;;
71869;SDS011;59739;47.696;11.746;2024-03-08T12:57:44;15.30;;;9.32;;
71869;SDS011;59739;47.696;11.746;2024-03-08T13:00:12;12.20;;;8.50;;
71869;SDS011;59739;47.696;11.746;2024-03-08T13:02:46;14.35;;;9.10;;
71869;SDS011;59739;47.696;11.746;2024-03-08T13:05:14;16.23;;;9.55;;
71869;SDS011;59739;47.696;11.746;2024-03-08T13:07:41;11.60;;;8.52;;
71869;SDS011;59739;47.696;11.746;2024-03-08T13:10:11;12.90;;;8.50;;
71869;SDS011;59739;47.696;11.746;2024-03-08T13:12:42;16.50;;;8.80;;
71869;SDS011;59739;47.696;11.746;2024-03-08T13:15:09;15.20;;;9.80;;
71869;SDS011;59739;47.696;11.746;2024-03-08T13:17:45;12.90;;;8.45;;
71869;SDS011;59739;47.696;11.746;2024-03-08T13:20:13;15.60;;;9.82;;
71869;SDS011;59739;47.696;11.746;2024-03-08T13:22:45;14.40;;;9.85;;
71869;SDS011;59739;47.696;11.746;2024-03-08T13:25:12;13.32;;;8.82;;
71869;SDS011;59739;47.696;11.746;2024-03-08T13:27:41;14.73;;;9.25;;
71869;SDS011;59739;47.696;11.746;2024-03-08T13:30:08;14.77;;;10.23;;
71869;SDS011;59739;47.696;11.746;2024-03-08T13:32:39;15.65;;;9.55;;
71869;SDS011;59739;47.696;11.746;2024-03-08T13:35:09;15.68;;;9.98;;
71869;SDS011;59739;47.696;11.746;2024-03-08T13:37:40;11.40;;;9.07;;
71869;SDS011;59739;47.696;11.746;2024-03-08T13:40:08;15.43;;;10.10;;
71869;SDS011;59739;47.696;11.746;2024-03-08T13:42:44;14.65;;;9.88;;
71869;SDS011;59739;47.696;11.746;2024-03-08T13:45:16;13.25;;;9.90;;
71869;SDS011;59739;47.696;11.746;2024-03-08T13:47:48;12.50;;;9.18;;
71869;SDS011;59739;47.696;11.746;2024-03-08T13:50:18;13.88;;;9.90;;
71869;SDS011;59739;47.696;11.746;2024-03-08T13:52:49;14.73;;;10.45;;
71869;SDS011;59739;47.696;11.746;2024-03-08T13:55:23;11.73;;;8.20;;
71869;SDS011;59739;47.696;11.746;2024-03-08T13:57:51;28.48;;;11.18;;
71869;SDS011;59739;47.696;11.746;2024-03-08T14:00:18;13.82;;;8.93;;
71869;SDS011;59739;47.696;11.746;2024-03-08T14:02:50;13.25;;;9.70;;
71869;SDS011;59739;47.696;11.746;2024-03-08T14:05:16;14.98;;;10.43;;
71869;SDS011;59739;47.696;11.746;2024-03-08T14:07:45;16.50;;;9.98;;
71869;SDS011;59739;47.696;11.746;2024-03-08T14:10:15;11.95;;;8.82;;
71869;SDS011;59739;47.696;11.746;2024-03-08T14:12:45;14.48;;;10.50;;
71869;SDS011;59739;47.696;11.746;2024-03-08T14:15:13;14.15;;;9.27;;
71869;SDS011;59739;47.696;11.746;2024-03-08T14:17:39;15.40;;;10.15;;
71869;SDS011;59739;47.696;11.746;2024-03-08T14:20:05;13.25;;;9.07;;
71869;SDS011;59739;47.696;11.746;2024-03-08T14:22:35;14.32;;;10.20;;
71869;SDS011;59739;47.696;11.746;2024-03-08T14:25:01;14.10;;;9.18;;
71869;SDS011;59739;47.696;11.746;2024-03-08T14:27:27;14.73;;;10.35;;
71869;SDS011;59739;47.696;11.746;2024-03-08T14:29:53;14.00;;;10.32;;